Tindal Airport
YPTN : now visible

Airfield :











YOU CAN JOIN US ON...

 
LOGIN :

Register | Disclaimer

   EN    FR    IT 

 









Legend :    VFR   Marginal VFR   IFR   Intensive IFR   Very Intensive IFR
Visi :
Ceiling :
>= 8 km
>= 3000ft
5 to 8 km
1000 to 3000 ft
1500m to 5 km
500 to 1000 ft
800 to 1500m
200 to 500 ft
< 800m
< 200 ft
Symbols :   Thunderstorms  Fog  Heavy snow  Heavy precipitations  Wind > 20 kt






- Airport Elevation : 443 ft
- IATA code : KTR


YPTN - Tindal

CURRENT METAR :
  • 082130Z AUTO 16007KT 9999 // NCD 25/23 Q1010 RF00.0/005.0

EXPIRED METARs :
  • 082100Z AUTO 15005KT 9999 // NCD 25/23 Q1010 RF00.0/005.0
  • 082030Z AUTO 15006KT 9999 // SCT086 BKN100 25/23 Q1009
  • 082000Z AUTO 14006KT 9999 // NCD 25/23 Q1009 RF00.0/005.0
  • 081930Z AUTO 17007KT 9999 // SCT057 SCT091 BKN100 25/24 Q1009
  • 081900Z AUTO 04001KT 9999 // SCT087 BKN105 25/22 Q1009

TAF TAF YPTN
Valid from the 08 at 18:00 until the 09 at 18:00 UTC


081708Z 0818/0918 02005KT 9999 -SHRA SCT050
FM090000 VRB05KT 9999 NSW SCT040
FM091300 03005KT 9999 SCT012 SCT050
TEMPO 0818/0822 VRB25G40KT 2000 TSRA SCT030 SCT070CB
PROB30
TEMPO 0903/0909 VRB25G40KT 2000 TSRA SCT030 SCT070CB
PROB30
TEMPO 0914/0918 VRB25G40KT 2000 TSRA SCT030 SCT060CB
YBBB FIR / Oceania



MET'MAP, your aeronautical weather chart ! - Copyright ORBIFLY December 2007 - Disclaimer

ORBIFLY MET'MAP TEAM :

Programming & Development : Alexandra Zaïnal
Concept & original design : Baudouin d'Aumeries
Assistance for programming : Marc-Olivier Méhu
Technical & hardware support : Manuel Goepfert

Contact : metmap@orbifly.com




SOURCES & CREDITS :

   NOAA       Earth
Advisory